sensor_id;sensor_type;location;lat;lon;timestamp;P1;durP1;ratioP1;P2;durP2;ratioP2
16472;SDS011;8347;52.486;13.432;2023-01-08T00:02:02;10.20;;;5.00;;
16472;SDS011;8347;52.486;13.432;2023-01-08T00:04:48;7.20;;;5.18;;
16472;SDS011;8347;52.486;13.432;2023-01-08T00:07:35;6.60;;;4.38;;
16472;SDS011;8347;52.486;13.432;2023-01-08T00:10:21;7.93;;;4.43;;
16472;SDS011;8347;52.486;13.432;2023-01-08T00:13:08;6.82;;;4.90;;
16472;SDS011;8347;52.486;13.432;2023-01-08T00:15:54;9.20;;;5.75;;
16472;SDS011;8347;52.486;13.432;2023-01-08T00:18:41;10.23;;;6.35;;
16472;SDS011;8347;52.486;13.432;2023-01-08T00:21:28;8.60;;;4.93;;
16472;SDS011;8347;52.486;13.432;2023-01-08T00:24:15;7.07;;;4.72;;
16472;SDS011;8347;52.486;13.432;2023-01-08T00:27:02;7.38;;;4.53;;
16472;SDS011;8347;52.486;13.432;2023-01-08T00:29:49;6.53;;;4.82;;
16472;SDS011;8347;52.486;13.432;2023-01-08T00:32:35;6.05;;;4.28;;
16472;SDS011;8347;52.486;13.432;2023-01-08T00:35:22;7.68;;;4.30;;
16472;SDS011;8347;52.486;13.432;2023-01-08T00:38:09;5.07;;;4.00;;
16472;SDS011;8347;52.486;13.432;2023-01-08T00:40:55;6.10;;;4.25;;
16472;SDS011;8347;52.486;13.432;2023-01-08T00:43:42;6.88;;;4.40;;
16472;SDS011;8347;52.486;13.432;2023-01-08T00:46:28;6.35;;;4.80;;
16472;SDS011;8347;52.486;13.432;2023-01-08T00:49:15;6.53;;;4.80;;
16472;SDS011;8347;52.486;13.432;2023-01-08T00:52:02;6.55;;;4.65;;
16472;SDS011;8347;52.486;13.432;2023-01-08T00:54:48;4.97;;;4.15;;
16472;SDS011;8347;52.486;13.432;2023-01-08T00:57:35;6.55;;;4.57;;
16472;SDS011;8347;52.486;13.432;2023-01-08T01:00:22;8.63;;;4.65;;
16472;SDS011;8347;52.486;13.432;2023-01-08T01:03:09;8.45;;;5.07;;
16472;SDS011;8347;52.486;13.432;2023-01-08T01:05:59;9.73;;;4.57;;
16472;SDS011;8347;52.486;13.432;2023-01-08T01:08:46;7.95;;;5.00;;
16472;SDS011;8347;52.486;13.432;2023-01-08T01:11:33;5.45;;;4.15;;
16472;SDS011;8347;52.486;13.432;2023-01-08T01:14:20;5.95;;;4.75;;
16472;SDS011;8347;52.486;13.432;2023-01-08T01:17:07;5.72;;;4.20;;
16472;SDS011;8347;52.486;13.432;2023-01-08T01:19:53;6.25;;;4.55;;
16472;SDS011;8347;52.486;13.432;2023-01-08T01:22:40;16.33;;;6.93;;
16472;SDS011;8347;52.486;13.432;2023-01-08T01:25:26;7.03;;;4.80;;
16472;SDS011;8347;52.486;13.432;2023-01-08T01:28:13;7.88;;;4.85;;
16472;SDS011;8347;52.486;13.432;2023-01-08T01:31:00;7.43;;;5.20;;
16472;SDS011;8347;52.486;13.432;2023-01-08T01:33:48;6.32;;;4.50;;
16472;SDS011;8347;52.486;13.432;2023-01-08T01:36:35;8.88;;;5.88;;
16472;SDS011;8347;52.486;13.432;2023-01-08T01:39:22;7.10;;;5.43;;
16472;SDS011;8347;52.486;13.432;2023-01-08T01:42:15;6.88;;;4.95;;
16472;SDS011;8347;52.486;13.432;2023-01-08T01:45:22;8.30;;;4.70;;
16472;SDS011;8347;52.486;13.432;2023-01-08T01:48:10;7.30;;;5.35;;
16472;SDS011;8347;52.486;13.432;2023-01-08T01:50:57;7.20;;;5.10;;
16472;SDS011;8347;52.486;13.432;2023-01-08T01:53:44;6.53;;;5.10;;
16472;SDS011;8347;52.486;13.432;2023-01-08T01:56:31;6.22;;;4.53;;
16472;SDS011;8347;52.486;13.432;2023-01-08T01:59:18;6.88;;;4.82;;
16472;SDS011;8347;52.486;13.432;2023-01-08T02:02:04;6.95;;;5.15;;
16472;SDS011;8347;52.486;13.432;2023-01-08T02:04:51;7.82;;;5.28;;
16472;SDS011;8347;52.486;13.432;2023-01-08T02:07:40;10.13;;;6.07;;
16472;SDS011;8347;52.486;13.432;2023-01-08T02:10:41;9.48;;;6.13;;
16472;SDS011;8347;52.486;13.432;2023-01-08T02:13:28;10.10;;;6.30;;
16472;SDS011;8347;52.486;13.432;2023-01-08T02:16:29;7.22;;;5.63;;
16472;SDS011;8347;52.486;13.432;2023-01-08T02:19:35;7.32;;;5.70;;
16472;SDS011;8347;52.486;13.432;2023-01-08T02:25:10;8.15;;;5.80;;
16472;SDS011;8347;52.486;13.432;2023-01-08T02:28:17;8.35;;;6.35;;
16472;SDS011;8347;52.486;13.432;2023-01-08T02:31:04;7.68;;;5.38;;
16472;SDS011;8347;52.486;13.432;2023-01-08T02:33:51;9.05;;;6.65;;
16472;SDS011;8347;52.486;13.432;2023-01-08T02:36:47;8.57;;;5.78;;
16472;SDS011;8347;52.486;13.432;2023-01-08T02:42:29;14.77;;;6.97;;
16472;SDS011;8347;52.486;13.432;2023-01-08T02:48:16;8.75;;;6.22;;
16472;SDS011;8347;52.486;13.432;2023-01-08T02:51:16;6.82;;;5.60;;
16472;SDS011;8347;52.486;13.432;2023-01-08T02:54:06;8.93;;;6.28;;
16472;SDS011;8347;52.486;13.432;2023-01-08T02:56:58;8.32;;;6.10;;
16472;SDS011;8347;52.486;13.432;2023-01-08T02:59:45;11.95;;;6.97;;
16472;SDS011;8347;52.486;13.432;2023-01-08T03:02:32;9.68;;;6.88;;
16472;SDS011;8347;52.486;13.432;2023-01-08T03:05:21;8.57;;;6.25;;
16472;SDS011;8347;52.486;13.432;2023-01-08T03:08:09;8.05;;;6.25;;
16472;SDS011;8347;52.486;13.432;2023-01-08T03:10:59;9.63;;;6.65;;
16472;SDS011;8347;52.486;13.432;2023-01-08T03:16:40;9.30;;;6.25;;
16472;SDS011;8347;52.486;13.432;2023-01-08T03:19:30;9.30;;;6.65;;
16472;SDS011;8347;52.486;13.432;2023-01-08T03:22:18;10.30;;;6.13;;
16472;SDS011;8347;52.486;13.432;2023-01-08T03:25:06;8.85;;;5.88;;
16472;SDS011;8347;52.486;13.432;2023-01-08T03:27:54;9.73;;;6.85;;
16472;SDS011;8347;52.486;13.432;2023-01-08T03:30:45;8.02;;;6.07;;
16472;SDS011;8347;52.486;13.432;2023-01-08T03:33:32;11.32;;;6.65;;
16472;SDS011;8347;52.486;13.432;2023-01-08T03:36:21;10.57;;;6.45;;
16472;SDS011;8347;52.486;13.432;2023-01-08T03:39:17;8.82;;;6.38;;
16472;SDS011;8347;52.486;13.432;2023-01-08T03:42:09;9.05;;;6.32;;
16472;SDS011;8347;52.486;13.432;2023-01-08T03:44:57;8.35;;;6.22;;
16472;SDS011;8347;52.486;13.432;2023-01-08T03:47:44;9.20;;;6.32;;
16472;SDS011;8347;52.486;13.432;2023-01-08T03:50:31;10.73;;;6.30;;
16472;SDS011;8347;52.486;13.432;2023-01-08T03:53:18;8.98;;;6.05;;
16472;SDS011;8347;52.486;13.432;2023-01-08T03:56:05;7.35;;;6.03;;
16472;SDS011;8347;52.486;13.432;2023-01-08T03:58:52;8.45;;;6.70;;
16472;SDS011;8347;52.486;13.432;2023-01-08T04:01:38;9.25;;;6.35;;
16472;SDS011;8347;52.486;13.432;2023-01-08T04:04:25;10.20;;;6.68;;
16472;SDS011;8347;52.486;13.432;2023-01-08T04:07:11;8.68;;;6.50;;
16472;SDS011;8347;52.486;13.432;2023-01-08T04:09:58;7.65;;;6.60;;
16472;SDS011;8347;52.486;13.432;2023-01-08T04:12:44;9.10;;;6.65;;
16472;SDS011;8347;52.486;13.432;2023-01-08T04:15:31;9.07;;;6.30;;
16472;SDS011;8347;52.486;13.432;2023-01-08T04:18:18;9.48;;;6.25;;
16472;SDS011;8347;52.486;13.432;2023-01-08T04:21:05;8.90;;;6.35;;
16472;SDS011;8347;52.486;13.432;2023-01-08T04:23:51;9.57;;;7.15;;
16472;SDS011;8347;52.486;13.432;2023-01-08T04:26:39;8.50;;;7.05;;
16472;SDS011;8347;52.486;13.432;2023-01-08T04:29:25;11.40;;;6.32;;
16472;SDS011;8347;52.486;13.432;2023-01-08T04:32:12;9.50;;;6.72;;
16472;SDS011;8347;52.486;13.432;2023-01-08T04:34:59;6.88;;;5.95;;
16472;SDS011;8347;52.486;13.432;2023-01-08T04:37:45;9.10;;;6.35;;
16472;SDS011;8347;52.486;13.432;2023-01-08T04:40:32;8.95;;;6.65;;
16472;SDS011;8347;52.486;13.432;2023-01-08T04:43:18;9.05;;;6.55;;
16472;SDS011;8347;52.486;13.432;2023-01-08T04:46:05;8.93;;;7.13;;
16472;SDS011;8347;52.486;13.432;2023-01-08T04:48:52;9.40;;;7.30;;
16472;SDS011;8347;52.486;13.432;2023-01-08T04:51:38;9.40;;;6.70;;
16472;SDS011;8347;52.486;13.432;2023-01-08T04:54:25;9.95;;;6.45;;
16472;SDS011;8347;52.486;13.432;2023-01-08T04:57:11;8.27;;;6.35;;
16472;SDS011;8347;52.486;13.432;2023-01-08T04:59:58;10.23;;;6.47;;
16472;SDS011;8347;52.486;13.432;2023-01-08T05:02:44;9.63;;;6.78;;
16472;SDS011;8347;52.486;13.432;2023-01-08T05:05:32;9.20;;;6.47;;
16472;SDS011;8347;52.486;13.432;2023-01-08T05:08:18;9.25;;;5.95;;
16472;SDS011;8347;52.486;13.432;2023-01-08T05:11:05;8.00;;;6.55;;
16472;SDS011;8347;52.486;13.432;2023-01-08T05:13:52;9.13;;;6.47;;
16472;SDS011;8347;52.486;13.432;2023-01-08T05:16:38;9.43;;;6.43;;
16472;SDS011;8347;52.486;13.432;2023-01-08T05:19:25;8.55;;;6.32;;
16472;SDS011;8347;52.486;13.432;2023-01-08T05:22:11;8.30;;;6.47;;
16472;SDS011;8347;52.486;13.432;2023-01-08T05:24:58;7.72;;;6.28;;
16472;SDS011;8347;52.486;13.432;2023-01-08T05:27:45;7.40;;;6.32;;
16472;SDS011;8347;52.486;13.432;2023-01-08T05:30:32;8.45;;;6.10;;
16472;SDS011;8347;52.486;13.432;2023-01-08T05:33:18;9.70;;;6.40;;
16472;SDS011;8347;52.486;13.432;2023-01-08T05:36:09;10.13;;;7.13;;
16472;SDS011;8347;52.486;13.432;2023-01-08T05:38:56;9.02;;;6.53;;
16472;SDS011;8347;52.486;13.432;2023-01-08T05:41:43;8.90;;;6.57;;
16472;SDS011;8347;52.486;13.432;2023-01-08T05:44:30;8.23;;;7.07;;
16472;SDS011;8347;52.486;13.432;2023-01-08T05:47:16;8.48;;;6.45;;
16472;SDS011;8347;52.486;13.432;2023-01-08T05:50:03;8.20;;;6.07;;
16472;SDS011;8347;52.486;13.432;2023-01-08T05:52:50;9.98;;;6.00;;
16472;SDS011;8347;52.486;13.432;2023-01-08T05:55:36;10.60;;;7.05;;
16472;SDS011;8347;52.486;13.432;2023-01-08T05:58:22;8.40;;;6.13;;
16472;SDS011;8347;52.486;13.432;2023-01-08T06:01:10;8.40;;;5.82;;
16472;SDS011;8347;52.486;13.432;2023-01-08T06:04:00;7.82;;;5.95;;
16472;SDS011;8347;52.486;13.432;2023-01-08T06:06:47;8.35;;;6.45;;
16472;SDS011;8347;52.486;13.432;2023-01-08T06:09:34;10.32;;;6.35;;
16472;SDS011;8347;52.486;13.432;2023-01-08T06:12:20;7.15;;;6.15;;
16472;SDS011;8347;52.486;13.432;2023-01-08T06:15:07;8.18;;;6.05;;
16472;SDS011;8347;52.486;13.432;2023-01-08T06:17:53;8.38;;;5.82;;
16472;SDS011;8347;52.486;13.432;2023-01-08T06:20:40;9.50;;;5.57;;
16472;SDS011;8347;52.486;13.432;2023-01-08T06:23:27;14.27;;;9.30;;
16472;SDS011;8347;52.486;13.432;2023-01-08T06:26:13;7.70;;;6.38;;
16472;SDS011;8347;52.486;13.432;2023-01-08T06:29:00;11.43;;;5.60;;
16472;SDS011;8347;52.486;13.432;2023-01-08T06:31:46;9.80;;;5.72;;
16472;SDS011;8347;52.486;13.432;2023-01-08T06:34:33;7.88;;;5.55;;
16472;SDS011;8347;52.486;13.432;2023-01-08T06:37:20;8.57;;;5.88;;
16472;SDS011;8347;52.486;13.432;2023-01-08T06:40:06;7.50;;;5.35;;
16472;SDS011;8347;52.486;13.432;2023-01-08T06:42:53;9.10;;;5.95;;
16472;SDS011;8347;52.486;13.432;2023-01-08T06:45:40;7.95;;;5.88;;
16472;SDS011;8347;52.486;13.432;2023-01-08T06:48:26;7.32;;;5.55;;
16472;SDS011;8347;52.486;13.432;2023-01-08T06:51:13;8.35;;;5.90;;
16472;SDS011;8347;52.486;13.432;2023-01-08T06:54:00;18.10;;;9.68;;
16472;SDS011;8347;52.486;13.432;2023-01-08T06:56:47;8.77;;;6.45;;
16472;SDS011;8347;52.486;13.432;2023-01-08T06:59:34;6.53;;;5.57;;
16472;SDS011;8347;52.486;13.432;2023-01-08T07:02:21;7.20;;;5.05;;
16472;SDS011;8347;52.486;13.432;2023-01-08T07:05:08;6.70;;;5.38;;
16472;SDS011;8347;52.486;13.432;2023-01-08T07:07:55;8.75;;;6.00;;
16472;SDS011;8347;52.486;13.432;2023-01-08T07:10:42;6.63;;;5.20;;
16472;SDS011;8347;52.486;13.432;2023-01-08T07:13:29;8.52;;;5.20;;
16472;SDS011;8347;52.486;13.432;2023-01-08T07:16:17;6.75;;;5.35;;
16472;SDS011;8347;52.486;13.432;2023-01-08T07:19:03;7.55;;;5.32;;
16472;SDS011;8347;52.486;13.432;2023-01-08T07:21:50;8.00;;;6.32;;
16472;SDS011;8347;52.486;13.432;2023-01-08T07:24:36;8.07;;;5.30;;
16472;SDS011;8347;52.486;13.432;2023-01-08T07:27:23;9.00;;;6.47;;
16472;SDS011;8347;52.486;13.432;2023-01-08T07:30:09;6.82;;;4.80;;
16472;SDS011;8347;52.486;13.432;2023-01-08T07:32:56;8.52;;;5.65;;
16472;SDS011;8347;52.486;13.432;2023-01-08T07:35:51;14.52;;;9.80;;
16472;SDS011;8347;52.486;13.432;2023-01-08T07:38:38;7.05;;;5.82;;
16472;SDS011;8347;52.486;13.432;2023-01-08T07:41:25;7.03;;;4.63;;
16472;SDS011;8347;52.486;13.432;2023-01-08T07:44:11;6.60;;;4.88;;
16472;SDS011;8347;52.486;13.432;2023-01-08T07:46:58;6.65;;;4.93;;
16472;SDS011;8347;52.486;13.432;2023-01-08T07:49:45;7.63;;;5.60;;
16472;SDS011;8347;52.486;13.432;2023-01-08T07:52:32;8.30;;;5.63;;
16472;SDS011;8347;52.486;13.432;2023-01-08T07:55:18;6.93;;;5.13;;
16472;SDS011;8347;52.486;13.432;2023-01-08T07:58:08;6.43;;;5.00;;
16472;SDS011;8347;52.486;13.432;2023-01-08T08:00:55;7.85;;;5.95;;
16472;SDS011;8347;52.486;13.432;2023-01-08T08:03:42;7.68;;;5.70;;
16472;SDS011;8347;52.486;13.432;2023-01-08T08:06:28;11.45;;;6.15;;
16472;SDS011;8347;52.486;13.432;2023-01-08T08:09:15;6.97;;;5.75;;
16472;SDS011;8347;52.486;13.432;2023-01-08T08:12:02;7.38;;;5.47;;
16472;SDS011;8347;52.486;13.432;2023-01-08T08:14:48;10.32;;;6.07;;
16472;SDS011;8347;52.486;13.432;2023-01-08T08:17:35;7.63;;;5.72;;
16472;SDS011;8347;52.486;13.432;2023-01-08T08:20:21;7.63;;;5.45;;
16472;SDS011;8347;52.486;13.432;2023-01-08T08:23:09;8.55;;;6.75;;
16472;SDS011;8347;52.486;13.432;2023-01-08T08:26:01;9.95;;;6.25;;
16472;SDS011;8347;52.486;13.432;2023-01-08T08:28:49;8.32;;;6.28;;
16472;SDS011;8347;52.486;13.432;2023-01-08T08:31:35;11.30;;;7.80;;
16472;SDS011;8347;52.486;13.432;2023-01-08T08:34:22;11.55;;;8.48;;
16472;SDS011;8347;52.486;13.432;2023-01-08T08:37:08;8.30;;;7.18;;
16472;SDS011;8347;52.486;13.432;2023-01-08T08:39:55;18.23;;;7.93;;
16472;SDS011;8347;52.486;13.432;2023-01-08T08:42:41;9.80;;;6.68;;
16472;SDS011;8347;52.486;13.432;2023-01-08T08:45:28;9.27;;;6.30;;
16472;SDS011;8347;52.486;13.432;2023-01-08T08:48:15;10.73;;;6.90;;
16472;SDS011;8347;52.486;13.432;2023-01-08T08:51:02;7.00;;;5.68;;
16472;SDS011;8347;52.486;13.432;2023-01-08T08:53:49;6.78;;;6.05;;
16472;SDS011;8347;52.486;13.432;2023-01-08T08:56:36;8.35;;;6.10;;
16472;SDS011;8347;52.486;13.432;2023-01-08T08:59:23;9.93;;;6.75;;
16472;SDS011;8347;52.486;13.432;2023-01-08T09:02:10;7.97;;;5.85;;
16472;SDS011;8347;52.486;13.432;2023-01-08T09:04:57;7.20;;;6.28;;
16472;SDS011;8347;52.486;13.432;2023-01-08T09:07:43;8.63;;;6.10;;
16472;SDS011;8347;52.486;13.432;2023-01-08T09:10:30;6.30;;;5.50;;
16472;SDS011;8347;52.486;13.432;2023-01-08T09:13:17;9.07;;;6.00;;
16472;SDS011;8347;52.486;13.432;2023-01-08T09:16:03;10.02;;;5.55;;
16472;SDS011;8347;52.486;13.432;2023-01-08T09:18:50;10.88;;;5.93;;
16472;SDS011;8347;52.486;13.432;2023-01-08T09:21:37;8.15;;;5.35;;
16472;SDS011;8347;52.486;13.432;2023-01-08T09:24:23;9.45;;;5.32;;
16472;SDS011;8347;52.486;13.432;2023-01-08T09:27:10;8.90;;;5.55;;
16472;SDS011;8347;52.486;13.432;2023-01-08T09:29:56;9.68;;;5.65;;
16472;SDS011;8347;52.486;13.432;2023-01-08T09:32:43;8.38;;;5.13;;
16472;SDS011;8347;52.486;13.432;2023-01-08T09:35:30;8.52;;;5.50;;
16472;SDS011;8347;52.486;13.432;2023-01-08T09:38:17;7.60;;;5.13;;
16472;SDS011;8347;52.486;13.432;2023-01-08T09:41:04;9.43;;;5.72;;
16472;SDS011;8347;52.486;13.432;2023-01-08T09:43:52;9.43;;;5.68;;
16472;SDS011;8347;52.486;13.432;2023-01-08T09:46:40;9.45;;;5.40;;
16472;SDS011;8347;52.486;13.432;2023-01-08T09:49:35;9.52;;;5.85;;
16472;SDS011;8347;52.486;13.432;2023-01-08T09:52:24;8.02;;;5.47;;
16472;SDS011;8347;52.486;13.432;2023-01-08T09:55:12;11.95;;;6.57;;
16472;SDS011;8347;52.486;13.432;2023-01-08T09:57:59;13.13;;;7.68;;
16472;SDS011;8347;52.486;13.432;2023-01-08T10:00:45;12.52;;;7.55;;
16472;SDS011;8347;52.486;13.432;2023-01-08T10:03:39;12.88;;;7.63;;
16472;SDS011;8347;52.486;13.432;2023-01-08T10:06:28;13.30;;;6.93;;
16472;SDS011;8347;52.486;13.432;2023-01-08T10:09:16;12.35;;;7.85;;
16472;SDS011;8347;52.486;13.432;2023-01-08T10:12:04;12.88;;;8.00;;
16472;SDS011;8347;52.486;13.432;2023-01-08T10:14:51;11.02;;;5.85;;
16472;SDS011;8347;52.486;13.432;2023-01-08T10:17:40;8.10;;;6.13;;
16472;SDS011;8347;52.486;13.432;2023-01-08T10:20:31;8.85;;;6.00;;
16472;SDS011;8347;52.486;13.432;2023-01-08T10:23:18;9.52;;;6.05;;
16472;SDS011;8347;52.486;13.432;2023-01-08T10:26:07;9.43;;;6.63;;
16472;SDS011;8347;52.486;13.432;2023-01-08T10:32:03;8.82;;;5.03;;
16472;SDS011;8347;52.486;13.432;2023-01-08T10:34:57;17.42;;;10.70;;
16472;SDS011;8347;52.486;13.432;2023-01-08T10:37:44;8.00;;;6.53;;
16472;SDS011;8347;52.486;13.432;2023-01-08T10:40:44;7.07;;;5.80;;
16472;SDS011;8347;52.486;13.432;2023-01-08T10:43:33;7.28;;;5.70;;
16472;SDS011;8347;52.486;13.432;2023-01-08T10:46:23;8.02;;;6.28;;
16472;SDS011;8347;52.486;13.432;2023-01-08T10:49:17;9.30;;;7.63;;
16472;SDS011;8347;52.486;13.432;2023-01-08T10:52:23;9.38;;;6.90;;
16472;SDS011;8347;52.486;13.432;2023-01-08T10:55:27;9.32;;;6.95;;
16472;SDS011;8347;52.486;13.432;2023-01-08T10:58:14;8.35;;;6.45;;
16472;SDS011;8347;52.486;13.432;2023-01-08T11:01:07;10.73;;;7.60;;
16472;SDS011;8347;52.486;13.432;2023-01-08T11:03:56;16.55;;;8.68;;
16472;SDS011;8347;52.486;13.432;2023-01-08T11:06:43;9.60;;;7.25;;
16472;SDS011;8347;52.486;13.432;2023-01-08T11:09:34;9.45;;;6.65;;
16472;SDS011;8347;52.486;13.432;2023-01-08T11:12:31;10.95;;;8.32;;
16472;SDS011;8347;52.486;13.432;2023-01-08T11:15:38;9.98;;;7.97;;
16472;SDS011;8347;52.486;13.432;2023-01-08T11:18:25;10.68;;;8.00;;
16472;SDS011;8347;52.486;13.432;2023-01-08T11:21:23;12.32;;;8.80;;
16472;SDS011;8347;52.486;13.432;2023-01-08T11:24:17;12.90;;;8.50;;
16472;SDS011;8347;52.486;13.432;2023-01-08T11:27:07;14.15;;;9.02;;
16472;SDS011;8347;52.486;13.432;2023-01-08T11:33:03;12.00;;;7.53;;
16472;SDS011;8347;52.486;13.432;2023-01-08T11:35:55;13.45;;;8.45;;
16472;SDS011;8347;52.486;13.432;2023-01-08T11:38:44;12.82;;;8.43;;
16472;SDS011;8347;52.486;13.432;2023-01-08T11:48:01;9.70;;;6.60;;
16472;SDS011;8347;52.486;13.432;2023-01-08T11:51:50;10.15;;;7.43;;
16472;SDS011;8347;52.486;13.432;2023-01-08T11:54:36;11.48;;;8.23;;
16472;SDS011;8347;52.486;13.432;2023-01-08T12:00:45;11.30;;;7.20;;
16472;SDS011;8347;52.486;13.432;2023-01-08T12:03:41;13.32;;;9.95;;
16472;SDS011;8347;52.486;13.432;2023-01-08T12:06:34;13.65;;;8.60;;
16472;SDS011;8347;52.486;13.432;2023-01-08T12:09:34;12.85;;;7.72;;
16472;SDS011;8347;52.486;13.432;2023-01-08T12:12:42;12.25;;;7.85;;
16472;SDS011;8347;52.486;13.432;2023-01-08T12:15:54;10.80;;;7.70;;
16472;SDS011;8347;52.486;13.432;2023-01-08T12:18:59;11.23;;;8.07;;
16472;SDS011;8347;52.486;13.432;2023-01-08T12:22:00;9.43;;;7.07;;
16472;SDS011;8347;52.486;13.432;2023-01-08T12:36:45;14.07;;;9.10;;
16472;SDS011;8347;52.486;13.432;2023-01-08T12:39:37;13.90;;;8.73;;
16472;SDS011;8347;52.486;13.432;2023-01-08T12:42:26;14.65;;;8.25;;
16472;SDS011;8347;52.486;13.432;2023-01-08T12:45:16;16.52;;;10.18;;
16472;SDS011;8347;52.486;13.432;2023-01-08T12:48:12;17.92;;;10.57;;
16472;SDS011;8347;52.486;13.432;2023-01-08T12:51:02;17.20;;;10.43;;
16472;SDS011;8347;52.486;13.432;2023-01-08T12:54:03;15.70;;;10.82;;
16472;SDS011;8347;52.486;13.432;2023-01-08T12:57:08;9.98;;;7.57;;
16472;SDS011;8347;52.486;13.432;2023-01-08T12:59:59;12.88;;;8.50;;
16472;SDS011;8347;52.486;13.432;2023-01-08T13:05:41;14.38;;;9.73;;
16472;SDS011;8347;52.486;13.432;2023-01-08T13:08:30;16.00;;;8.95;;
16472;SDS011;8347;52.486;13.432;2023-01-08T13:11:24;12.68;;;8.25;;
16472;SDS011;8347;52.486;13.432;2023-01-08T13:14:11;12.52;;;8.00;;
16472;SDS011;8347;52.486;13.432;2023-01-08T13:17:03;11.35;;;7.63;;
16472;SDS011;8347;52.486;13.432;2023-01-08T13:19:51;14.20;;;9.50;;
16472;SDS011;8347;52.486;13.432;2023-01-08T13:22:38;12.00;;;8.32;;
16472;SDS011;8347;52.486;13.432;2023-01-08T13:34:19;13.85;;;8.90;;
16472;SDS011;8347;52.486;13.432;2023-01-08T13:37:23;18.02;;;11.30;;
16472;SDS011;8347;52.486;13.432;2023-01-08T13:43:19;14.15;;;10.07;;
16472;SDS011;8347;52.486;13.432;2023-01-08T13:46:17;13.07;;;10.15;;
16472;SDS011;8347;52.486;13.432;2023-01-08T13:49:08;12.88;;;9.00;;
16472;SDS011;8347;52.486;13.432;2023-01-08T13:52:04;14.13;;;10.65;;
16472;SDS011;8347;52.486;13.432;2023-01-08T13:54:50;18.08;;;10.75;;
16472;SDS011;8347;52.486;13.432;2023-01-08T13:57:39;12.82;;;9.98;;
16472;SDS011;8347;52.486;13.432;2023-01-08T14:00:29;16.73;;;12.55;;
16472;SDS011;8347;52.486;13.432;2023-01-08T14:03:26;13.73;;;10.55;;
16472;SDS011;8347;52.486;13.432;2023-01-08T14:06:23;14.68;;;11.18;;
16472;SDS011;8347;52.486;13.432;2023-01-08T14:09:12;16.30;;;11.38;;
16472;SDS011;8347;52.486;13.432;2023-01-08T14:12:04;16.75;;;11.52;;
16472;SDS011;8347;52.486;13.432;2023-01-08T14:14:52;16.23;;;11.00;;
16472;SDS011;8347;52.486;13.432;2023-01-08T14:17:41;16.88;;;11.95;;
16472;SDS011;8347;52.486;13.432;2023-01-08T14:20:30;15.13;;;10.80;;
16472;SDS011;8347;52.486;13.432;2023-01-08T14:23:22;17.88;;;11.95;;
16472;SDS011;8347;52.486;13.432;2023-01-08T14:26:19;11.48;;;9.02;;
16472;SDS011;8347;52.486;13.432;2023-01-08T14:29:18;16.30;;;10.60;;
16472;SDS011;8347;52.486;13.432;2023-01-08T14:32:10;16.02;;;10.90;;
16472;SDS011;8347;52.486;13.432;2023-01-08T14:35:01;20.13;;;12.05;;
16472;SDS011;8347;52.486;13.432;2023-01-08T14:37:49;24.88;;;14.48;;
16472;SDS011;8347;52.486;13.432;2023-01-08T14:40:37;18.67;;;11.38;;
16472;SDS011;8347;52.486;13.432;2023-01-08T14:43:27;12.77;;;10.02;;
16472;SDS011;8347;52.486;13.432;2023-01-08T14:46:18;15.20;;;10.00;;
16472;SDS011;8347;52.486;13.432;2023-01-08T14:49:11;13.85;;;8.73;;
16472;SDS011;8347;52.486;13.432;2023-01-08T14:52:00;13.18;;;9.40;;
16472;SDS011;8347;52.486;13.432;2023-01-08T14:54:48;15.05;;;9.60;;
16472;SDS011;8347;52.486;13.432;2023-01-08T14:57:36;13.88;;;9.68;;
16472;SDS011;8347;52.486;13.432;2023-01-08T15:00:24;14.40;;;9.80;;
16472;SDS011;8347;52.486;13.432;2023-01-08T15:06:29;15.85;;;11.43;;
16472;SDS011;8347;52.486;13.432;2023-01-08T15:09:24;15.35;;;9.88;;
16472;SDS011;8347;52.486;13.432;2023-01-08T15:12:24;14.90;;;10.48;;
16472;SDS011;8347;52.486;13.432;2023-01-08T15:15:21;14.05;;;9.50;;
16472;SDS011;8347;52.486;13.432;2023-01-08T15:18:09;14.65;;;10.32;;
16472;SDS011;8347;52.486;13.432;2023-01-08T15:20:57;17.05;;;11.75;;
16472;SDS011;8347;52.486;13.432;2023-01-08T15:23:50;17.27;;;11.75;;
16472;SDS011;8347;52.486;13.432;2023-01-08T15:26:40;18.90;;;12.13;;
16472;SDS011;8347;52.486;13.432;2023-01-08T15:29:28;18.58;;;13.00;;
16472;SDS011;8347;52.486;13.432;2023-01-08T15:32:21;16.60;;;11.88;;
16472;SDS011;8347;52.486;13.432;2023-01-08T15:35:12;15.60;;;11.65;;
16472;SDS011;8347;52.486;13.432;2023-01-08T15:37:59;19.45;;;11.02;;
16472;SDS011;8347;52.486;13.432;2023-01-08T15:40:46;17.33;;;10.93;;
16472;SDS011;8347;52.486;13.432;2023-01-08T15:43:33;17.13;;;11.50;;
16472;SDS011;8347;52.486;13.432;2023-01-08T15:46:20;16.80;;;11.68;;
16472;SDS011;8347;52.486;13.432;2023-01-08T15:49:06;20.27;;;13.50;;
16472;SDS011;8347;52.486;13.432;2023-01-08T15:51:53;25.27;;;15.82;;
16472;SDS011;8347;52.486;13.432;2023-01-08T15:54:40;26.23;;;16.10;;
16472;SDS011;8347;52.486;13.432;2023-01-08T15:57:27;22.98;;;13.38;;
16472;SDS011;8347;52.486;13.432;2023-01-08T16:00:15;23.27;;;15.75;;
16472;SDS011;8347;52.486;13.432;2023-01-08T16:03:03;23.65;;;14.98;;
16472;SDS011;8347;52.486;13.432;2023-01-08T16:05:51;17.95;;;11.88;;
16472;SDS011;8347;52.486;13.432;2023-01-08T16:08:38;19.58;;;12.30;;
16472;SDS011;8347;52.486;13.432;2023-01-08T16:11:30;22.17;;;13.38;;
16472;SDS011;8347;52.486;13.432;2023-01-08T16:14:17;19.48;;;12.95;;
16472;SDS011;8347;52.486;13.432;2023-01-08T16:17:04;24.20;;;13.43;;
16472;SDS011;8347;52.486;13.432;2023-01-08T16:19:50;23.85;;;15.05;;
16472;SDS011;8347;52.486;13.432;2023-01-08T16:22:37;24.90;;;14.00;;
16472;SDS011;8347;52.486;13.432;2023-01-08T16:25:24;26.55;;;14.82;;
16472;SDS011;8347;52.486;13.432;2023-01-08T16:28:11;23.58;;;14.23;;
16472;SDS011;8347;52.486;13.432;2023-01-08T16:30:57;20.20;;;13.77;;
16472;SDS011;8347;52.486;13.432;2023-01-08T16:33:44;27.25;;;16.75;;
16472;SDS011;8347;52.486;13.432;2023-01-08T16:36:31;26.40;;;15.98;;
16472;SDS011;8347;52.486;13.432;2023-01-08T16:39:17;27.20;;;16.30;;
16472;SDS011;8347;52.486;13.432;2023-01-08T16:42:04;25.60;;;16.15;;
16472;SDS011;8347;52.486;13.432;2023-01-08T16:44:50;24.35;;;15.18;;
16472;SDS011;8347;52.486;13.432;2023-01-08T16:47:37;20.52;;;14.60;;
16472;SDS011;8347;52.486;13.432;2023-01-08T16:50:24;20.45;;;14.02;;
16472;SDS011;8347;52.486;13.432;2023-01-08T16:53:11;19.05;;;13.10;;
16472;SDS011;8347;52.486;13.432;2023-01-08T16:55:58;22.08;;;13.57;;
16472;SDS011;8347;52.486;13.432;2023-01-08T16:58:44;18.10;;;13.00;;
16472;SDS011;8347;52.486;13.432;2023-01-08T17:01:34;24.95;;;15.43;;
16472;SDS011;8347;52.486;13.432;2023-01-08T17:04:21;25.75;;;15.82;;
16472;SDS011;8347;52.486;13.432;2023-01-08T17:07:08;27.40;;;16.38;;
16472;SDS011;8347;52.486;13.432;2023-01-08T17:09:54;31.95;;;18.92;;
16472;SDS011;8347;52.486;13.432;2023-01-08T17:12:40;35.55;;;19.50;;
16472;SDS011;8347;52.486;13.432;2023-01-08T17:15:27;37.60;;;20.02;;
16472;SDS011;8347;52.486;13.432;2023-01-08T17:18:14;26.00;;;16.05;;
16472;SDS011;8347;52.486;13.432;2023-01-08T17:21:01;38.58;;;20.38;;
16472;SDS011;8347;52.486;13.432;2023-01-08T17:23:47;42.85;;;22.25;;
16472;SDS011;8347;52.486;13.432;2023-01-08T17:26:34;46.53;;;25.95;;
16472;SDS011;8347;52.486;13.432;2023-01-08T17:29:20;28.85;;;18.15;;
16472;SDS011;8347;52.486;13.432;2023-01-08T17:32:07;27.35;;;16.77;;
16472;SDS011;8347;52.486;13.432;2023-01-08T17:34:54;20.90;;;14.07;;
16472;SDS011;8347;52.486;13.432;2023-01-08T17:37:41;19.27;;;12.88;;
16472;SDS011;8347;52.486;13.432;2023-01-08T17:40:28;24.38;;;14.25;;
16472;SDS011;8347;52.486;13.432;2023-01-08T17:43:14;18.67;;;12.07;;
16472;SDS011;8347;52.486;13.432;2023-01-08T17:46:04;20.27;;;13.88;;